sensor_id;sensor_type;location;lat;lon;timestamp;P1;durP1;ratioP1;P2;durP2;ratioP2
51266;SDS011;37338;47.426;19.204;2023-05-02T00:02:07;4.97;;;2.60;;
51266;SDS011;37338;47.426;19.204;2023-05-02T00:04:32;3.93;;;1.57;;
51266;SDS011;37338;47.426;19.204;2023-05-02T00:06:58;3.77;;;1.50;;
51266;SDS011;37338;47.426;19.204;2023-05-02T00:09:23;6.53;;;1.63;;
51266;SDS011;37338;47.426;19.204;2023-05-02T00:11:48;1.67;;;1.40;;
51266;SDS011;37338;47.426;19.204;2023-05-02T00:14:14;4.53;;;1.47;;
51266;SDS011;37338;47.426;19.204;2023-05-02T00:16:39;2.27;;;1.40;;
51266;SDS011;37338;47.426;19.204;2023-05-02T00:19:05;3.33;;;1.67;;
51266;SDS011;37338;47.426;19.204;2023-05-02T00:21:30;4.20;;;2.03;;
51266;SDS011;37338;47.426;19.204;2023-05-02T00:23:57;3.30;;;1.80;;
51266;SDS011;37338;47.426;19.204;2023-05-02T00:26:22;2.30;;;1.80;;
51266;SDS011;37338;47.426;19.204;2023-05-02T00:28:48;3.37;;;1.90;;
51266;SDS011;37338;47.426;19.204;2023-05-02T00:31:13;4.13;;;2.17;;
51266;SDS011;37338;47.426;19.204;2023-05-02T00:33:39;2.63;;;1.33;;
51266;SDS011;37338;47.426;19.204;2023-05-02T00:36:10;5.03;;;1.57;;
51266;SDS011;37338;47.426;19.204;2023-05-02T00:41:03;3.00;;;1.30;;
51266;SDS011;37338;47.426;19.204;2023-05-02T00:43:29;2.90;;;1.60;;
51266;SDS011;37338;47.426;19.204;2023-05-02T00:45:55;3.07;;;1.43;;
51266;SDS011;37338;47.426;19.204;2023-05-02T00:48:20;2.70;;;1.50;;
51266;SDS011;37338;47.426;19.204;2023-05-02T00:50:47;2.43;;;1.70;;
51266;SDS011;37338;47.426;19.204;2023-05-02T00:53:12;3.23;;;1.60;;
51266;SDS011;37338;47.426;19.204;2023-05-02T00:55:39;1.73;;;1.27;;
51266;SDS011;37338;47.426;19.204;2023-05-02T00:58:05;2.73;;;1.83;;
51266;SDS011;37338;47.426;19.204;2023-05-02T01:00:45;2.83;;;1.40;;
51266;SDS011;37338;47.426;19.204;2023-05-02T01:09:41;3.00;;;1.35;;
51266;SDS011;37338;47.426;19.204;2023-05-02T01:12:31;5.17;;;1.90;;
51266;SDS011;37338;47.426;19.204;2023-05-02T01:15:04;3.67;;;1.57;;
51266;SDS011;37338;47.426;19.204;2023-05-02T01:17:32;2.60;;;1.53;;
51266;SDS011;37338;47.426;19.204;2023-05-02T01:20:01;4.60;;;1.53;;
51266;SDS011;37338;47.426;19.204;2023-05-02T01:22:29;2.17;;;1.10;;
51266;SDS011;37338;47.426;19.204;2023-05-02T01:28:27;4.67;;;1.57;;
51266;SDS011;37338;47.426;19.204;2023-05-02T01:30:53;3.73;;;1.63;;
51266;SDS011;37338;47.426;19.204;2023-05-02T01:33:20;4.83;;;1.73;;
51266;SDS011;37338;47.426;19.204;2023-05-02T01:35:48;2.27;;;1.30;;
51266;SDS011;37338;47.426;19.204;2023-05-02T01:38:14;5.80;;;1.63;;
51266;SDS011;37338;47.426;19.204;2023-05-02T01:40:42;4.57;;;1.63;;
51266;SDS011;37338;47.426;19.204;2023-05-02T01:43:10;2.00;;;1.80;;
51266;SDS011;37338;47.426;19.204;2023-05-02T01:45:36;2.90;;;1.70;;
51266;SDS011;37338;47.426;19.204;2023-05-02T01:48:02;4.93;;;1.40;;
51266;SDS011;37338;47.426;19.204;2023-05-02T01:50:30;4.63;;;1.43;;
51266;SDS011;37338;47.426;19.204;2023-05-02T01:52:55;2.30;;;1.70;;
51266;SDS011;37338;47.426;19.204;2023-05-02T01:55:22;4.40;;;1.50;;
51266;SDS011;37338;47.426;19.204;2023-05-02T01:57:48;3.50;;;1.40;;
51266;SDS011;37338;47.426;19.204;2023-05-02T02:00:18;7.53;;;2.33;;
51266;SDS011;37338;47.426;19.204;2023-05-02T02:02:43;2.77;;;1.53;;
51266;SDS011;37338;47.426;19.204;2023-05-02T02:05:09;4.53;;;1.80;;
51266;SDS011;37338;47.426;19.204;2023-05-02T02:07:35;2.97;;;1.50;;
51266;SDS011;37338;47.426;19.204;2023-05-02T02:10:00;4.07;;;1.63;;
51266;SDS011;37338;47.426;19.204;2023-05-02T02:12:27;2.57;;;1.43;;
51266;SDS011;37338;47.426;19.204;2023-05-02T02:17:42;2.07;;;1.43;;
51266;SDS011;37338;47.426;19.204;2023-05-02T02:20:09;4.07;;;2.20;;
51266;SDS011;37338;47.426;19.204;2023-05-02T02:22:36;4.53;;;2.07;;
51266;SDS011;37338;47.426;19.204;2023-05-02T02:25:04;5.00;;;1.80;;
51266;SDS011;37338;47.426;19.204;2023-05-02T02:27:30;3.43;;;1.60;;
51266;SDS011;37338;47.426;19.204;2023-05-02T02:29:56;9.63;;;2.10;;
51266;SDS011;37338;47.426;19.204;2023-05-02T02:32:21;2.33;;;1.77;;
51266;SDS011;37338;47.426;19.204;2023-05-02T02:34:48;4.80;;;2.23;;
51266;SDS011;37338;47.426;19.204;2023-05-02T02:37:17;2.40;;;1.70;;
51266;SDS011;37338;47.426;19.204;2023-05-02T02:50:29;3.07;;;2.00;;
51266;SDS011;37338;47.426;19.204;2023-05-02T02:53:07;3.67;;;2.00;;
51266;SDS011;37338;47.426;19.204;2023-05-02T02:55:54;3.50;;;1.80;;
51266;SDS011;37338;47.426;19.204;2023-05-02T03:01:01;5.90;;;2.03;;
51266;SDS011;37338;47.426;19.204;2023-05-02T03:03:28;9.20;;;3.27;;
51266;SDS011;37338;47.426;19.204;2023-05-02T03:05:55;12.20;;;1.80;;
51266;SDS011;37338;47.426;19.204;2023-05-02T03:08:39;3.27;;;1.77;;
51266;SDS011;37338;47.426;19.204;2023-05-02T03:11:08;5.00;;;2.17;;
51266;SDS011;37338;47.426;19.204;2023-05-02T03:13:33;4.23;;;2.33;;
51266;SDS011;37338;47.426;19.204;2023-05-02T03:18:37;6.50;;;1.87;;
51266;SDS011;37338;47.426;19.204;2023-05-02T03:21:03;3.27;;;1.90;;
51266;SDS011;37338;47.426;19.204;2023-05-02T03:23:29;6.33;;;1.90;;
51266;SDS011;37338;47.426;19.204;2023-05-02T03:25:54;4.73;;;2.17;;
51266;SDS011;37338;47.426;19.204;2023-05-02T03:28:20;4.10;;;2.20;;
51266;SDS011;37338;47.426;19.204;2023-05-02T03:30:45;5.37;;;2.00;;
51266;SDS011;37338;47.426;19.204;2023-05-02T03:33:10;7.97;;;2.23;;
51266;SDS011;37338;47.426;19.204;2023-05-02T03:35:36;9.80;;;2.57;;
51266;SDS011;37338;47.426;19.204;2023-05-02T03:38:01;8.00;;;2.23;;
51266;SDS011;37338;47.426;19.204;2023-05-02T03:40:26;4.80;;;2.53;;
51266;SDS011;37338;47.426;19.204;2023-05-02T03:42:52;8.20;;;2.43;;
51266;SDS011;37338;47.426;19.204;2023-05-02T03:45:17;10.10;;;2.47;;
51266;SDS011;37338;47.426;19.204;2023-05-02T03:47:43;10.33;;;2.10;;
51266;SDS011;37338;47.426;19.204;2023-05-02T03:50:08;11.27;;;2.37;;
51266;SDS011;37338;47.426;19.204;2023-05-02T03:52:34;4.90;;;2.27;;
51266;SDS011;37338;47.426;19.204;2023-05-02T03:55:00;13.37;;;2.83;;
51266;SDS011;37338;47.426;19.204;2023-05-02T03:57:25;5.90;;;3.00;;
51266;SDS011;37338;47.426;19.204;2023-05-02T03:59:54;31.67;;;3.97;;
51266;SDS011;37338;47.426;19.204;2023-05-02T04:02:19;10.50;;;2.87;;
51266;SDS011;37338;47.426;19.204;2023-05-02T04:04:45;12.37;;;3.00;;
51266;SDS011;37338;47.426;19.204;2023-05-02T04:07:10;27.93;;;4.40;;
51266;SDS011;37338;47.426;19.204;2023-05-02T04:09:42;38.57;;;5.13;;
51266;SDS011;37338;47.426;19.204;2023-05-02T04:12:07;25.43;;;3.33;;
51266;SDS011;37338;47.426;19.204;2023-05-02T04:14:33;5.20;;;2.40;;
51266;SDS011;37338;47.426;19.204;2023-05-02T04:16:58;6.40;;;2.30;;
51266;SDS011;37338;47.426;19.204;2023-05-02T04:19:23;6.87;;;2.80;;
51266;SDS011;37338;47.426;19.204;2023-05-02T04:21:49;8.80;;;2.50;;
51266;SDS011;37338;47.426;19.204;2023-05-02T04:24:14;68.23;;;4.67;;
51266;SDS011;37338;47.426;19.204;2023-05-02T04:26:40;10.37;;;3.27;;
51266;SDS011;37338;47.426;19.204;2023-05-02T04:29:05;12.03;;;3.40;;
51266;SDS011;37338;47.426;19.204;2023-05-02T04:31:31;18.67;;;3.73;;
51266;SDS011;37338;47.426;19.204;2023-05-02T04:33:57;17.13;;;3.20;;
51266;SDS011;37338;47.426;19.204;2023-05-02T04:36:22;12.80;;;2.67;;
51266;SDS011;37338;47.426;19.204;2023-05-02T04:38:48;5.97;;;2.93;;
51266;SDS011;37338;47.426;19.204;2023-05-02T04:41:14;12.87;;;3.57;;
51266;SDS011;37338;47.426;19.204;2023-05-02T04:43:39;4.77;;;2.77;;
51266;SDS011;37338;47.426;19.204;2023-05-02T04:46:05;16.20;;;3.70;;
51266;SDS011;37338;47.426;19.204;2023-05-02T04:48:30;50.03;;;5.27;;
51266;SDS011;37338;47.426;19.204;2023-05-02T04:50:56;16.47;;;3.70;;
51266;SDS011;37338;47.426;19.204;2023-05-02T04:53:21;16.80;;;3.50;;
51266;SDS011;37338;47.426;19.204;2023-05-02T04:55:47;10.37;;;3.70;;
51266;SDS011;37338;47.426;19.204;2023-05-02T04:58:13;7.07;;;3.33;;
51266;SDS011;37338;47.426;19.204;2023-05-02T05:00:38;6.57;;;3.60;;
51266;SDS011;37338;47.426;19.204;2023-05-02T05:03:03;12.47;;;3.33;;
51266;SDS011;37338;47.426;19.204;2023-05-02T05:05:30;5.90;;;2.95;;
51266;SDS011;37338;47.426;19.204;2023-05-02T05:07:56;19.95;;;4.25;;
51266;SDS011;37338;47.426;19.204;2023-05-02T05:10:21;5.15;;;2.40;;
51266;SDS011;37338;47.426;19.204;2023-05-02T05:12:47;10.73;;;3.42;;
51266;SDS011;37338;47.426;19.204;2023-05-02T05:15:13;3.97;;;2.67;;
51266;SDS011;37338;47.426;19.204;2023-05-02T05:17:39;6.97;;;2.30;;
51266;SDS011;37338;47.426;19.204;2023-05-02T05:20:05;3.15;;;2.22;;
51266;SDS011;37338;47.426;19.204;2023-05-02T05:22:31;14.68;;;3.20;;
51266;SDS011;37338;47.426;19.204;2023-05-02T05:25:02;6.50;;;2.60;;
51266;SDS011;37338;47.426;19.204;2023-05-02T05:27:28;14.23;;;3.47;;
51266;SDS011;37338;47.426;19.204;2023-05-02T05:29:53;8.10;;;3.72;;
51266;SDS011;37338;47.426;19.204;2023-05-02T05:32:19;8.32;;;3.08;;
51266;SDS011;37338;47.426;19.204;2023-05-02T05:34:45;5.20;;;3.17;;
51266;SDS011;37338;47.426;19.204;2023-05-02T05:37:12;4.93;;;3.10;;
51266;SDS011;37338;47.426;19.204;2023-05-02T05:39:37;7.47;;;3.58;;
51266;SDS011;37338;47.426;19.204;2023-05-02T05:42:02;8.18;;;2.72;;
51266;SDS011;37338;47.426;19.204;2023-05-02T05:44:28;17.95;;;3.13;;
51266;SDS011;37338;47.426;19.204;2023-05-02T05:46:53;7.20;;;3.17;;
51266;SDS011;37338;47.426;19.204;2023-05-02T05:49:19;14.07;;;2.70;;
51266;SDS011;37338;47.426;19.204;2023-05-02T05:51:45;14.88;;;2.80;;
51266;SDS011;37338;47.426;19.204;2023-05-02T05:54:11;10.32;;;3.83;;
51266;SDS011;37338;47.426;19.204;2023-05-02T05:56:37;10.32;;;2.70;;
51266;SDS011;37338;47.426;19.204;2023-05-02T05:59:02;15.50;;;3.47;;
51266;SDS011;37338;47.426;19.204;2023-05-02T06:01:27;9.23;;;3.58;;
51266;SDS011;37338;47.426;19.204;2023-05-02T06:03:53;9.95;;;2.95;;
51266;SDS011;37338;47.426;19.204;2023-05-02T06:06:18;3.63;;;2.28;;
51266;SDS011;37338;47.426;19.204;2023-05-02T06:08:43;8.65;;;2.35;;
51266;SDS011;37338;47.426;19.204;2023-05-02T06:11:09;8.10;;;2.88;;
51266;SDS011;37338;47.426;19.204;2023-05-02T06:13:35;8.75;;;2.65;;
51266;SDS011;37338;47.426;19.204;2023-05-02T06:16:01;19.05;;;3.45;;
51266;SDS011;37338;47.426;19.204;2023-05-02T06:18:34;13.43;;;3.53;;
51266;SDS011;37338;47.426;19.204;2023-05-02T06:21:05;5.97;;;3.15;;
51266;SDS011;37338;47.426;19.204;2023-05-02T06:23:30;6.65;;;3.15;;
51266;SDS011;37338;47.426;19.204;2023-05-02T06:26:00;13.82;;;2.90;;
51266;SDS011;37338;47.426;19.204;2023-05-02T06:28:26;14.75;;;3.20;;
51266;SDS011;37338;47.426;19.204;2023-05-02T06:31:02;10.15;;;3.70;;
51266;SDS011;37338;47.426;19.204;2023-05-02T06:33:29;11.45;;;3.05;;
51266;SDS011;37338;47.426;19.204;2023-05-02T06:35:55;5.45;;;2.90;;
51266;SDS011;37338;47.426;19.204;2023-05-02T06:38:21;6.55;;;3.58;;
51266;SDS011;37338;47.426;19.204;2023-05-02T06:40:47;10.75;;;3.80;;
51266;SDS011;37338;47.426;19.204;2023-05-02T06:43:13;17.40;;;3.63;;
51266;SDS011;37338;47.426;19.204;2023-05-02T06:45:39;10.93;;;4.40;;
51266;SDS011;37338;47.426;19.204;2023-05-02T06:48:05;10.85;;;3.80;;
51266;SDS011;37338;47.426;19.204;2023-05-02T06:50:31;8.27;;;3.20;;
51266;SDS011;37338;47.426;19.204;2023-05-02T06:52:56;4.68;;;3.20;;
51266;SDS011;37338;47.426;19.204;2023-05-02T06:55:22;6.72;;;2.58;;
51266;SDS011;37338;47.426;19.204;2023-05-02T06:57:48;10.30;;;3.05;;
51266;SDS011;37338;47.426;19.204;2023-05-02T07:00:15;6.57;;;3.03;;
51266;SDS011;37338;47.426;19.204;2023-05-02T07:02:41;5.45;;;3.20;;
51266;SDS011;37338;47.426;19.204;2023-05-02T07:05:06;9.27;;;3.60;;
51266;SDS011;37338;47.426;19.204;2023-05-02T07:07:32;4.78;;;3.05;;
51266;SDS011;37338;47.426;19.204;2023-05-02T07:09:57;18.42;;;4.95;;
51266;SDS011;37338;47.426;19.204;2023-05-02T07:12:23;6.05;;;3.38;;
51266;SDS011;37338;47.426;19.204;2023-05-02T07:14:48;3.67;;;3.35;;
51266;SDS011;37338;47.426;19.204;2023-05-02T07:17:13;5.25;;;3.80;;
51266;SDS011;37338;47.426;19.204;2023-05-02T07:19:39;5.07;;;3.47;;
51266;SDS011;37338;47.426;19.204;2023-05-02T07:22:05;7.43;;;3.42;;
51266;SDS011;37338;47.426;19.204;2023-05-02T07:24:31;11.73;;;3.80;;
51266;SDS011;37338;47.426;19.204;2023-05-02T07:26:56;10.65;;;2.85;;
51266;SDS011;37338;47.426;19.204;2023-05-02T07:29:21;8.57;;;3.42;;
51266;SDS011;37338;47.426;19.204;2023-05-02T07:31:47;9.32;;;3.17;;
51266;SDS011;37338;47.426;19.204;2023-05-02T07:34:12;8.85;;;3.10;;
51266;SDS011;37338;47.426;19.204;2023-05-02T07:36:38;9.23;;;2.63;;
51266;SDS011;37338;47.426;19.204;2023-05-02T07:39:03;4.32;;;2.70;;
51266;SDS011;37338;47.426;19.204;2023-05-02T07:41:28;5.07;;;2.90;;
51266;SDS011;37338;47.426;19.204;2023-05-02T07:43:54;3.67;;;2.53;;
51266;SDS011;37338;47.426;19.204;2023-05-02T07:46:21;3.83;;;2.60;;
51266;SDS011;37338;47.426;19.204;2023-05-02T07:48:47;4.03;;;2.40;;
51266;SDS011;37338;47.426;19.204;2023-05-02T07:51:12;7.07;;;3.40;;
51266;SDS011;37338;47.426;19.204;2023-05-02T07:53:37;4.47;;;2.65;;
51266;SDS011;37338;47.426;19.204;2023-05-02T07:59:25;4.03;;;2.40;;
51266;SDS011;37338;47.426;19.204;2023-05-02T08:01:50;3.28;;;2.58;;
51266;SDS011;37338;47.426;19.204;2023-05-02T08:04:25;4.97;;;3.28;;
51266;SDS011;37338;47.426;19.204;2023-05-02T08:06:50;8.07;;;3.03;;
51266;SDS011;37338;47.426;19.204;2023-05-02T08:09:16;6.75;;;3.92;;
51266;SDS011;37338;47.426;19.204;2023-05-02T08:11:41;6.38;;;2.83;;
51266;SDS011;37338;47.426;19.204;2023-05-02T08:17:10;10.80;;;3.30;;
51266;SDS011;37338;47.426;19.204;2023-05-02T08:19:36;9.82;;;3.75;;
51266;SDS011;37338;47.426;19.204;2023-05-02T08:22:01;6.28;;;3.15;;
51266;SDS011;37338;47.426;19.204;2023-05-02T08:28:07;8.43;;;2.80;;
51266;SDS011;37338;47.426;19.204;2023-05-02T08:30:32;3.60;;;2.83;;
51266;SDS011;37338;47.426;19.204;2023-05-02T08:32:58;15.05;;;3.15;;
51266;SDS011;37338;47.426;19.204;2023-05-02T08:35:23;9.75;;;2.97;;
51266;SDS011;37338;47.426;19.204;2023-05-02T08:41:16;3.67;;;2.63;;
51266;SDS011;37338;47.426;19.204;2023-05-02T08:47:03;4.55;;;2.78;;
51266;SDS011;37338;47.426;19.204;2023-05-02T08:49:41;16.80;;;2.83;;
51266;SDS011;37338;47.426;19.204;2023-05-02T08:52:07;6.65;;;2.15;;
51266;SDS011;37338;47.426;19.204;2023-05-02T08:57:29;6.30;;;1.95;;
51266;SDS011;37338;47.426;19.204;2023-05-02T08:59:55;7.80;;;2.67;;
51266;SDS011;37338;47.426;19.204;2023-05-02T09:05:02;6.40;;;2.33;;
51266;SDS011;37338;47.426;19.204;2023-05-02T09:10:53;7.32;;;2.95;;
51266;SDS011;37338;47.426;19.204;2023-05-02T09:19:26;7.97;;;2.33;;
51266;SDS011;37338;47.426;19.204;2023-05-02T09:28:53;5.97;;;4.00;;
51266;SDS011;37338;47.426;19.204;2023-05-02T09:31:29;17.70;;;3.20;;
51266;SDS011;37338;47.426;19.204;2023-05-02T09:34:08;5.20;;;2.25;;
51266;SDS011;37338;47.426;19.204;2023-05-02T09:36:50;8.48;;;2.30;;
51266;SDS011;37338;47.426;19.204;2023-05-02T09:39:19;4.00;;;2.25;;
51266;SDS011;37338;47.426;19.204;2023-05-02T09:45:23;15.43;;;2.53;;
51266;SDS011;37338;47.426;19.204;2023-05-02T09:47:50;4.35;;;2.05;;
51266;SDS011;37338;47.426;19.204;2023-05-02T09:53:53;5.60;;;2.15;;
51266;SDS011;37338;47.426;19.204;2023-05-02T09:59:21;5.75;;;2.17;;
51266;SDS011;37338;47.426;19.204;2023-05-02T10:01:57;8.18;;;2.28;;
51266;SDS011;37338;47.426;19.204;2023-05-02T10:07:45;5.18;;;2.38;;
51266;SDS011;37338;47.426;19.204;2023-05-02T10:10:11;12.40;;;2.33;;
51266;SDS011;37338;47.426;19.204;2023-05-02T10:16:01;3.90;;;2.05;;
51266;SDS011;37338;47.426;19.204;2023-05-02T10:21:49;10.88;;;2.38;;
51266;SDS011;37338;47.426;19.204;2023-05-02T10:24:15;5.15;;;1.92;;
51266;SDS011;37338;47.426;19.204;2023-05-02T10:26:41;7.47;;;2.40;;
51266;SDS011;37338;47.426;19.204;2023-05-02T10:35:32;3.15;;;2.30;;
51266;SDS011;37338;47.426;19.204;2023-05-02T10:38:00;3.75;;;2.58;;
51266;SDS011;37338;47.426;19.204;2023-05-02T10:40:25;6.60;;;2.58;;
51266;SDS011;37338;47.426;19.204;2023-05-02T10:42:51;6.93;;;2.50;;
51266;SDS011;37338;47.426;19.204;2023-05-02T10:45:33;7.80;;;2.50;;
51266;SDS011;37338;47.426;19.204;2023-05-02T10:54:35;9.50;;;2.80;;
51266;SDS011;37338;47.426;19.204;2023-05-02T11:00:24;4.55;;;2.58;;
51266;SDS011;37338;47.426;19.204;2023-05-02T11:02:53;10.82;;;2.78;;
51266;SDS011;37338;47.426;19.204;2023-05-02T11:05:20;8.13;;;2.15;;
51266;SDS011;37338;47.426;19.204;2023-05-02T11:07:46;3.35;;;2.10;;
51266;SDS011;37338;47.426;19.204;2023-05-02T11:12:44;5.05;;;2.47;;
51266;SDS011;37338;47.426;19.204;2023-05-02T11:15:14;4.63;;;2.70;;
51266;SDS011;37338;47.426;19.204;2023-05-02T11:24:37;27.85;;;4.65;;
51266;SDS011;37338;47.426;19.204;2023-05-02T11:35:28;7.53;;;3.55;;
51266;SDS011;37338;47.426;19.204;2023-05-02T11:38:03;7.88;;;3.30;;
51266;SDS011;37338;47.426;19.204;2023-05-02T11:40:32;19.13;;;4.05;;
51266;SDS011;37338;47.426;19.204;2023-05-02T11:42:58;11.52;;;4.22;;
51266;SDS011;37338;47.426;19.204;2023-05-02T11:45:36;44.13;;;6.32;;
51266;SDS011;37338;47.426;19.204;2023-05-02T11:48:03;8.43;;;3.83;;
51266;SDS011;37338;47.426;19.204;2023-05-02T11:50:45;10.52;;;4.82;;
51266;SDS011;37338;47.426;19.204;2023-05-02T11:56:37;8.30;;;3.65;;
51266;SDS011;37338;47.426;19.204;2023-05-02T12:05:10;7.03;;;3.40;;
51266;SDS011;37338;47.426;19.204;2023-05-02T12:18:02;7.35;;;3.00;;
51266;SDS011;37338;47.426;19.204;2023-05-02T12:23:49;4.90;;;3.80;;
51266;SDS011;37338;47.426;19.204;2023-05-02T12:32:28;17.90;;;5.18;;
51266;SDS011;37338;47.426;19.204;2023-05-02T12:41:37;11.82;;;4.60;;
51266;SDS011;37338;47.426;19.204;2023-05-02T12:47:43;12.93;;;3.40;;
51266;SDS011;37338;47.426;19.204;2023-05-02T12:50:09;12.75;;;4.47;;
51266;SDS011;37338;47.426;19.204;2023-05-02T12:52:50;9.48;;;3.58;;
51266;SDS011;37338;47.426;19.204;2023-05-02T12:58:41;7.97;;;3.53;;
51266;SDS011;37338;47.426;19.204;2023-05-02T13:13:59;34.80;;;4.78;;
51266;SDS011;37338;47.426;19.204;2023-05-02T13:16:27;18.05;;;3.90;;
51266;SDS011;37338;47.426;19.204;2023-05-02T13:18:54;14.60;;;3.40;;
51266;SDS011;37338;47.426;19.204;2023-05-02T13:21:19;26.00;;;4.28;;
51266;SDS011;37338;47.426;19.204;2023-05-02T13:23:46;10.75;;;3.70;;
51266;SDS011;37338;47.426;19.204;2023-05-02T13:26:11;12.02;;;5.53;;
51266;SDS011;37338;47.426;19.204;2023-05-02T13:28:37;10.60;;;3.47;;
51266;SDS011;37338;47.426;19.204;2023-05-02T13:31:03;14.05;;;4.07;;
51266;SDS011;37338;47.426;19.204;2023-05-02T13:33:28;7.53;;;3.67;;
51266;SDS011;37338;47.426;19.204;2023-05-02T13:35:53;8.20;;;3.50;;
51266;SDS011;37338;47.426;19.204;2023-05-02T13:38:19;5.07;;;3.03;;
51266;SDS011;37338;47.426;19.204;2023-05-02T13:40:45;11.40;;;3.75;;
51266;SDS011;37338;47.426;19.204;2023-05-02T13:43:10;13.25;;;4.05;;
51266;SDS011;37338;47.426;19.204;2023-05-02T13:45:36;14.52;;;3.40;;
51266;SDS011;37338;47.426;19.204;2023-05-02T13:48:01;11.70;;;3.17;;
51266;SDS011;37338;47.426;19.204;2023-05-02T13:50:27;11.15;;;3.30;;
51266;SDS011;37338;47.426;19.204;2023-05-02T13:52:52;8.23;;;2.88;;
51266;SDS011;37338;47.426;19.204;2023-05-02T13:55:27;8.65;;;3.05;;
51266;SDS011;37338;47.426;19.204;2023-05-02T13:57:52;11.95;;;2.90;;
51266;SDS011;37338;47.426;19.204;2023-05-02T14:00:17;16.08;;;3.45;;
51266;SDS011;37338;47.426;19.204;2023-05-02T14:02:43;8.85;;;3.60;;
51266;SDS011;37338;47.426;19.204;2023-05-02T14:05:12;7.75;;;3.70;;
51266;SDS011;37338;47.426;19.204;2023-05-02T14:07:37;12.32;;;3.08;;
51266;SDS011;37338;47.426;19.204;2023-05-02T14:10:17;6.22;;;2.85;;
51266;SDS011;37338;47.426;19.204;2023-05-02T14:12:43;8.50;;;3.30;;
51266;SDS011;37338;47.426;19.204;2023-05-02T14:18:30;15.77;;;3.38;;
51266;SDS011;37338;47.426;19.204;2023-05-02T14:20:55;10.60;;;2.75;;
51266;SDS011;37338;47.426;19.204;2023-05-02T14:23:24;7.65;;;2.83;;
51266;SDS011;37338;47.426;19.204;2023-05-02T14:25:54;4.75;;;2.85;;
51266;SDS011;37338;47.426;19.204;2023-05-02T14:48:32;7.90;;;2.38;;
51266;SDS011;37338;47.426;19.204;2023-05-02T14:50:57;7.38;;;2.28;;
51266;SDS011;37338;47.426;19.204;2023-05-02T14:53:24;8.90;;;2.50;;
51266;SDS011;37338;47.426;19.204;2023-05-02T14:55:50;7.88;;;2.20;;
51266;SDS011;37338;47.426;19.204;2023-05-02T15:11:42;5.35;;;2.63;;
51266;SDS011;37338;47.426;19.204;2023-05-02T15:14:08;4.90;;;2.13;;
51266;SDS011;37338;47.426;19.204;2023-05-02T15:16:33;9.93;;;3.20;;
51266;SDS011;37338;47.426;19.204;2023-05-02T15:19:00;9.93;;;2.33;;
51266;SDS011;37338;47.426;19.204;2023-05-02T15:21:26;4.22;;;2.63;;
51266;SDS011;37338;47.426;19.204;2023-05-02T15:23:51;6.53;;;2.40;;
51266;SDS011;37338;47.426;19.204;2023-05-02T15:26:17;15.98;;;2.88;;
51266;SDS011;37338;47.426;19.204;2023-05-02T15:28:42;8.70;;;3.15;;
51266;SDS011;37338;47.426;19.204;2023-05-02T15:31:08;13.52;;;3.55;;
51266;SDS011;37338;47.426;19.204;2023-05-02T15:33:33;8.00;;;2.92;;
51266;SDS011;37338;47.426;19.204;2023-05-02T15:35:58;11.32;;;3.75;;
51266;SDS011;37338;47.426;19.204;2023-05-02T15:38:24;4.97;;;2.50;;
51266;SDS011;37338;47.426;19.204;2023-05-02T15:40:53;5.68;;;2.60;;
51266;SDS011;37338;47.426;19.204;2023-05-02T15:43:23;8.13;;;2.13;;
51266;SDS011;37338;47.426;19.204;2023-05-02T15:45:58;7.75;;;2.22;;
51266;SDS011;37338;47.426;19.204;2023-05-02T16:11:34;7.68;;;3.05;;
51266;SDS011;37338;47.426;19.204;2023-05-02T16:14:00;8.90;;;2.33;;
51266;SDS011;37338;47.426;19.204;2023-05-02T16:16:28;5.22;;;1.85;;
51266;SDS011;37338;47.426;19.204;2023-05-02T16:18:54;4.57;;;2.30;;
51266;SDS011;37338;47.426;19.204;2023-05-02T16:21:19;6.50;;;2.40;;
51266;SDS011;37338;47.426;19.204;2023-05-02T16:23:45;2.88;;;1.60;;
51266;SDS011;37338;47.426;19.204;2023-05-02T16:26:10;7.72;;;2.13;;
51266;SDS011;37338;47.426;19.204;2023-05-02T16:28:35;7.95;;;2.70;;
51266;SDS011;37338;47.426;19.204;2023-05-02T16:37:09;5.03;;;2.15;;
51266;SDS011;37338;47.426;19.204;2023-05-02T16:39:35;4.90;;;1.88;;
51266;SDS011;37338;47.426;19.204;2023-05-02T16:42:01;9.88;;;1.77;;
51266;SDS011;37338;47.426;19.204;2023-05-02T16:44:28;7.57;;;2.08;;
51266;SDS011;37338;47.426;19.204;2023-05-02T16:46:54;8.35;;;2.35;;
51266;SDS011;37338;47.426;19.204;2023-05-02T16:49:19;8.40;;;2.05;;
51266;SDS011;37338;47.426;19.204;2023-05-02T16:51:45;10.43;;;2.58;;
51266;SDS011;37338;47.426;19.204;2023-05-02T16:54:15;4.28;;;1.73;;
51266;SDS011;37338;47.426;19.204;2023-05-02T16:56:41;38.92;;;5.10;;
51266;SDS011;37338;47.426;19.204;2023-05-02T16:59:06;8.07;;;2.78;;
51266;SDS011;37338;47.426;19.204;2023-05-02T17:01:33;4.43;;;2.05;;
51266;SDS011;37338;47.426;19.204;2023-05-02T17:04:15;8.07;;;2.00;;
51266;SDS011;37338;47.426;19.204;2023-05-02T17:06:41;4.80;;;1.70;;
51266;SDS011;37338;47.426;19.204;2023-05-02T17:09:06;3.92;;;1.98;;
51266;SDS011;37338;47.426;19.204;2023-05-02T17:11:32;12.85;;;3.58;;
51266;SDS011;37338;47.426;19.204;2023-05-02T17:13:57;9.88;;;3.20;;
51266;SDS011;37338;47.426;19.204;2023-05-02T17:16:23;8.07;;;3.28;;
51266;SDS011;37338;47.426;19.204;2023-05-02T17:18:48;9.75;;;3.88;;
51266;SDS011;37338;47.426;19.204;2023-05-02T17:21:13;11.15;;;2.30;;
51266;SDS011;37338;47.426;19.204;2023-05-02T17:23:39;10.18;;;2.60;;
51266;SDS011;37338;47.426;19.204;2023-05-02T17:26:04;15.65;;;3.15;;
51266;SDS011;37338;47.426;19.204;2023-05-02T17:31:03;7.43;;;2.47;;
51266;SDS011;37338;47.426;19.204;2023-05-02T17:33:29;9.20;;;2.40;;
51266;SDS011;37338;47.426;19.204;2023-05-02T17:35:54;12.60;;;3.53;;
51266;SDS011;37338;47.426;19.204;2023-05-02T17:38:20;5.60;;;2.40;;
51266;SDS011;37338;47.426;19.204;2023-05-02T17:40:45;7.55;;;2.25;;
51266;SDS011;37338;47.426;19.204;2023-05-02T17:43:10;8.07;;;2.42;;
51266;SDS011;37338;47.426;19.204;2023-05-02T17:45:36;12.88;;;2.75;;
51266;SDS011;37338;47.426;19.204;2023-05-02T17:48:03;12.35;;;3.28;;
51266;SDS011;37338;47.426;19.204;2023-05-02T17:50:30;9.23;;;2.70;;
51266;SDS011;37338;47.426;19.204;2023-05-02T17:52:56;9.27;;;2.70;;
51266;SDS011;37338;47.426;19.204;2023-05-02T17:55:23;9.50;;;3.15;;
51266;SDS011;37338;47.426;19.204;2023-05-02T17:57:48;8.85;;;2.78;;
51266;SDS011;37338;47.426;19.204;2023-05-02T18:00:14;11.15;;;3.10;;
51266;SDS011;37338;47.426;19.204;2023-05-02T18:02:39;7.65;;;2.60;;
51266;SDS011;37338;47.426;19.204;2023-05-02T18:05:04;9.73;;;2.97;;
51266;SDS011;37338;47.426;19.204;2023-05-02T18:07:31;4.57;;;3.30;;
51266;SDS011;37338;47.426;19.204;2023-05-02T18:09:56;8.70;;;2.88;;
51266;SDS011;37338;47.426;19.204;2023-05-02T18:12:22;14.23;;;6.40;;
51266;SDS011;37338;47.426;19.204;2023-05-02T18:14:47;8.60;;;3.92;;
51266;SDS011;37338;47.426;19.204;2023-05-02T18:17:13;7.78;;;3.22;;
51266;SDS011;37338;47.426;19.204;2023-05-02T18:19:38;8.68;;;3.38;;
51266;SDS011;37338;47.426;19.204;2023-05-02T18:22:04;10.05;;;4.38;;
51266;SDS011;37338;47.426;19.204;2023-05-02T18:24:31;7.55;;;3.00;;
51266;SDS011;37338;47.426;19.204;2023-05-02T18:26:56;9.85;;;3.90;;
51266;SDS011;37338;47.426;19.204;2023-05-02T18:29:22;13.40;;;3.00;;
51266;SDS011;37338;47.426;19.204;2023-05-02T18:31:47;11.07;;;3.10;;
51266;SDS011;37338;47.426;19.204;2023-05-02T18:34:16;9.05;;;3.00;;
51266;SDS011;37338;47.426;19.204;2023-05-02T18:36:42;10.98;;;4.40;;
51266;SDS011;37338;47.426;19.204;2023-05-02T18:39:09;5.88;;;3.05;;